Pleasant Plains, Arkansas
Current Conditions -  °F | °C
As of 10:35 AM on Monday 26 Jan 2015 (Local Time) from KBVX Reporting Station
Clear Clear  
Wind Chill:   Ceiling: Unl
Heat Index:   Visibility: 10mi
Dew Point: -2°   Wind: 9mph
Humidity: 57%   Direction: 260°W
Pressure: 30.13"   Gusts: NA
Location:  35.55°N, 91.63°W
Report Text: KBVX 261635Z AUTO 26008KT 210V310 10SM CLR 06/M02 A3013 RMK AO1
Loading
Personal Weather Stations






























Interactive Weather Map New forecast layout! Learn more

10-Day Weather Forecast

Advertisements
Track Severe Weather on mobile